Terminal Aerodrome Forecast
Issued by NWS

Current Version | Previous Version | Text Only | Print | Product List | Glossary On
Versions: 1 2 3 4 5 6 7 8 9 10 11 12 13 14 15 16 17 18 19 20 21 22 23 24 25 26 27 28 29 30 31 32 33 34 35 36 37 38
000
FTUS41 KBOX 171736
TAFBAF
TAF
KBAF 171736Z 1718/1818 02004KT P6SM VCSH OVC080
     FM171900 VRB03KT 4SM -FZRASNPL OVC060
     FM172100 VRB03KT 5SM -FZRAPL OVC050
     FM180000 VRB03KT 4SM -RAPL OVC010
     FM180300 04004KT 1SM -RAPL OVC010
     FM180800 01006KT 1SM -RASN OVC010
     FM181200 36007KT 1SM BR VCSH OVC003=

USA.gov is the U.S. government's official web portal to all federal, state and local government web resources and services.